Winona Lake, IN

4:56 PM EST on February 01, 2015 (GMT -0500)
Fort Wayne International | Change Station
CLOSE
Current Station
Airport
Location: Fort Wayne,
Elevation: 827 ft
Nearby Weather Stations
Active Advisory: Winter Storm Warning Active Notice: Local Storm Report

Elev 827 ft 40.98 °N, 85.19 °W | Updated 1 hour ago

Snow
Snow
30 °F
Feels Like 18 °F
N
20
Wind Variable Wind from ENE

Today
High -- | Low -- °F
--% Chance of Precip.
Yesterday
High -- | Low -- °F
Precip. -- in
7:54 AM 5:59 PM
Waxing Gibbous, 96% visible
Pressure 29.67 in
Visibility 0.5 miles
Clouds Mostly Cloudy 500 ft
Overcast 900 ft
Windchill 18 °F
Dew Point 30 °F
Humidity 100%
Rainfall 0.58 in
Snow Depth Not available.
UV 0 out of 12
Pollen .10 out of 12
Air Quality Not available.
Flu Activity Not available.
METAR KFWA 012054Z 07017KT 1/2SM SN FZFG BKN005 OVC009 M01/M01 A2967

More Conditions Fewer Conditions

Pressure 29.67 in
Visibility 0.5 miles
Clouds Mostly Cloudy 500 ft
Overcast 900 ft
Windchill 18 °F
Dew Point 30 °F
Humidity 100%
Rainfall 0.58 in
Snow Depth Not available.
UV 0 out of 12
Pollen .10 out of 12
Air Quality Not available.
Flu Activity Not available.
METAR KFWA 012054Z 07017KT 1/2SM SN FZFG BKN005 OVC009 M01/M01 A2967

More Conditions Fewer Conditions

10-Day Weather Forecast

Almanac

Astronomy

Feb. 01, 2015 Rise Set
Actual Time
Civil Twilight
Nautical Twilight
Astronomical Twilight
Moon
Length of Visible Light
Length of Day
Tomorrow will be .
, % of the Moon is Illuminated

Today's Extremes

State Highs State Lows

Community

WunderPhotos

Upload Photos

1,792,555 photos uploaded!

WunderBlogs® & News

Nearby

Air Quality

  Air Quality AQ Index Pollutant
Not available.

Snow Depth

Station Depth Elevation

Earthquake Activity

City Distance Mag. Time & Date
Minimum magnitude displayed is 2.5.

Coastal Water Temperatures

Place Temperature

Nearby Weather Stations